createdAt,value
2019-06-15T00:00:16.992Z,14.44
2019-06-15T00:00:50.815Z,14.44
2019-06-15T00:01:23.923Z,14.44
2019-06-15T00:01:58.197Z,14.50
2019-06-15T00:02:31.130Z,14.50
2019-06-15T00:03:04.129Z,14.50
2019-06-15T00:03:38.294Z,14.50
2019-06-15T00:04:11.290Z,14.50
2019-06-15T00:04:44.175Z,14.50
2019-06-15T00:05:17.167Z,14.50
2019-06-15T00:05:50.227Z,14.50
2019-06-15T00:06:23.225Z,14.50
2019-06-15T00:06:56.301Z,14.50
2019-06-15T00:07:30.313Z,14.50
2019-06-15T00:08:04.972Z,14.50
2019-06-15T00:08:38.073Z,14.50
2019-06-15T00:09:11.110Z,14.56
2019-06-15T00:09:44.016Z,14.56
2019-06-15T00:10:17.143Z,14.56
2019-06-15T00:10:50.277Z,14.56
2019-06-15T00:11:25.346Z,14.63
2019-06-15T00:11:58.416Z,14.63
2019-06-15T00:12:31.542Z,14.63
2019-06-15T00:13:04.615Z,14.63
2019-06-15T00:13:37.609Z,14.63
2019-06-15T00:14:10.755Z,14.63
2019-06-15T00:14:43.562Z,14.63
2019-06-15T00:15:16.495Z,14.69
2019-06-15T00:15:49.444Z,14.69
2019-06-15T00:16:22.446Z,14.63
2019-06-15T00:16:55.531Z,14.63
2019-06-15T00:17:28.524Z,14.63
2019-06-15T00:18:01.655Z,14.63
2019-06-15T00:18:34.585Z,14.63
2019-06-15T00:19:08.757Z,14.63
2019-06-15T00:19:41.684Z,14.63
2019-06-15T00:20:15.747Z,14.63
2019-06-15T00:20:48.644Z,14.63
2019-06-15T00:21:21.633Z,14.63
2019-06-15T00:21:54.514Z,14.63
2019-06-15T00:22:27.503Z,14.63
2019-06-15T00:23:00.507Z,14.63
2019-06-15T00:23:33.637Z,14.63
2019-06-15T00:24:06.558Z,14.63
2019-06-15T00:24:39.385Z,14.63
2019-06-15T00:25:12.735Z,14.63
2019-06-15T00:25:45.820Z,14.63
2019-06-15T00:26:18.751Z,14.63
2019-06-15T00:26:51.684Z,14.63
2019-06-15T00:27:24.773Z,14.63
2019-06-15T00:27:57.732Z,14.63
2019-06-15T00:28:30.908Z,14.63
2019-06-15T00:29:04.935Z,14.63
2019-06-15T00:29:37.910Z,14.63
2019-06-15T00:30:11.099Z,14.63
2019-06-15T00:30:45.481Z,14.69
2019-06-15T00:31:18.519Z,14.69
2019-06-15T00:31:51.623Z,14.69
2019-06-15T00:32:24.923Z,14.69
2019-06-15T00:32:59.518Z,14.69
2019-06-15T00:33:32.567Z,14.75
2019-06-15T00:34:07.917Z,14.69
2019-06-15T00:34:41.798Z,14.75
2019-06-15T00:35:14.980Z,14.75
2019-06-15T00:35:49.450Z,14.75
2019-06-15T00:36:24.124Z,14.75
2019-06-15T00:36:57.260Z,14.75
2019-06-15T00:37:31.696Z,14.75
2019-06-15T00:38:04.539Z,14.75
2019-06-15T00:38:37.517Z,14.81
2019-06-15T00:39:10.487Z,14.81
2019-06-15T00:39:45.202Z,14.75
2019-06-15T00:40:18.368Z,14.81
2019-06-15T00:40:51.454Z,14.75
2019-06-15T00:41:25.513Z,14.75
2019-06-15T00:41:58.481Z,14.81
2019-06-15T00:42:31.625Z,14.75
2019-06-15T00:43:04.689Z,14.81
2019-06-15T00:43:37.564Z,14.81
2019-06-15T00:44:10.728Z,14.81
2019-06-15T00:44:43.611Z,14.81
2019-06-15T00:45:16.802Z,14.81
2019-06-15T00:45:50.142Z,14.81
2019-06-15T00:46:23.273Z,14.81
2019-06-15T00:46:56.129Z,14.75
2019-06-15T00:47:29.222Z,14.75
2019-06-15T00:48:02.440Z,14.75
2019-06-15T00:48:36.465Z,14.75
2019-06-15T00:49:09.636Z,14.75
2019-06-15T00:49:42.596Z,14.75
2019-06-15T00:50:16.165Z,14.75
2019-06-15T00:50:49.123Z,14.75
2019-06-15T00:51:22.232Z,14.75
2019-06-15T00:51:55.281Z,14.69
2019-06-15T00:52:28.236Z,14.69
2019-06-15T00:53:01.169Z,14.69
2019-06-15T00:53:34.238Z,14.69
2019-06-15T00:54:07.143Z,14.69
2019-06-15T00:54:50.088Z,14.69
2019-06-15T00:55:15.792Z,14.69
2019-06-15T00:55:50.398Z,14.69
2019-06-15T00:56:23.529Z,14.69
2019-06-15T00:56:57.774Z,14.75
2019-06-15T00:57:30.931Z,14.75
2019-06-15T00:58:05.171Z,14.75
2019-06-15T00:58:39.819Z,14.75
2019-06-15T00:59:12.905Z,14.75
2019-06-15T00:59:45.975Z,14.75
2019-06-15T01:00:19.106Z,14.75
2019-06-15T01:00:52.040Z,14.75
2019-06-15T01:01:25.068Z,14.81
2019-06-15T01:01:58.199Z,14.81
2019-06-15T01:02:31.150Z,14.81
2019-06-15T01:03:04.289Z,14.81
2019-06-15T01:03:37.265Z,14.81
2019-06-15T01:04:10.211Z,14.81
2019-06-15T01:04:43.190Z,14.81
2019-06-15T01:05:16.268Z,14.81
2019-06-15T01:05:49.212Z,14.81
2019-06-15T01:06:22.359Z,14.81
2019-06-15T01:06:55.458Z,14.87
2019-06-15T01:07:28.390Z,14.87
2019-06-15T01:08:01.348Z,14.87
2019-06-15T01:08:34.205Z,14.87
2019-06-15T01:09:07.251Z,14.87
2019-06-15T01:09:40.304Z,14.87
2019-06-15T01:10:14.080Z,14.87
2019-06-15T01:10:47.157Z,14.87
2019-06-15T01:11:20.133Z,14.87
2019-06-15T01:11:54.667Z,14.87
2019-06-15T01:12:27.956Z,14.87
2019-06-15T01:13:01.232Z,14.87
2019-06-15T01:13:34.250Z,14.87
2019-06-15T01:14:07.422Z,14.87
2019-06-15T01:14:40.299Z,14.94
2019-06-15T01:15:13.658Z,14.94
2019-06-15T01:15:46.938Z,14.94
2019-06-15T01:16:21.514Z,14.94
2019-06-15T01:16:54.459Z,14.94
2019-06-15T01:17:27.586Z,14.94
2019-06-15T01:18:01.390Z,14.94
2019-06-15T01:18:34.535Z,14.94
2019-06-15T01:19:09.292Z,15.00
2019-06-15T01:19:42.257Z,15.00
2019-06-15T01:20:15.647Z,15.00
2019-06-15T01:20:48.764Z,15.00
2019-06-15T01:21:21.867Z,15.00
2019-06-15T01:21:54.994Z,15.00
2019-06-15T01:22:28.034Z,15.00
2019-06-15T01:23:01.160Z,15.00
2019-06-15T01:23:33.999Z,15.00
2019-06-15T01:24:07.136Z,15.00
2019-06-15T01:24:40.143Z,15.00
2019-06-15T01:25:13.237Z,15.00
2019-06-15T01:25:46.288Z,15.06
2019-06-15T01:26:20.844Z,15.06
2019-06-15T01:26:53.791Z,15.00
2019-06-15T01:27:26.813Z,15.00
2019-06-15T01:27:59.950Z,15.00
2019-06-15T01:28:32.955Z,15.00
2019-06-15T01:29:05.977Z,15.00
2019-06-15T01:29:39.082Z,15.00
2019-06-15T01:30:12.839Z,15.00
2019-06-15T01:30:46.420Z,15.00
2019-06-15T01:31:19.428Z,15.00
2019-06-15T01:31:54.090Z,15.00
2019-06-15T01:32:27.044Z,15.06
2019-06-15T01:33:00.205Z,15.06
2019-06-15T01:33:33.033Z,15.06
2019-06-15T01:34:06.210Z,15.06
2019-06-15T01:34:39.209Z,15.06
2019-06-15T01:35:12.611Z,15.06
2019-06-15T01:35:45.629Z,15.06
2019-06-15T01:36:18.771Z,15.06
2019-06-15T01:36:51.708Z,15.06
2019-06-15T01:37:25.158Z,15.06
2019-06-15T01:37:58.064Z,15.06
2019-06-15T01:38:31.095Z,15.06
2019-06-15T01:39:04.914Z,15.06
2019-06-15T01:39:38.336Z,15.06
2019-06-15T01:40:11.768Z,15.00
2019-06-15T01:40:44.850Z,15.00
2019-06-15T01:41:17.971Z,15.00
2019-06-15T01:41:51.094Z,15.00
2019-06-15T01:42:24.132Z,15.00
2019-06-15T01:42:57.155Z,15.00
2019-06-15T01:43:30.154Z,15.00
2019-06-15T01:44:03.318Z,15.00
2019-06-15T01:44:36.247Z,15.06
2019-06-15T01:45:09.602Z,15.06
2019-06-15T01:45:42.503Z,15.06
2019-06-15T01:46:15.549Z,15.06
2019-06-15T01:46:48.448Z,15.06
2019-06-15T01:47:21.511Z,15.06
2019-06-15T01:47:54.872Z,15.06
2019-06-15T01:48:28.059Z,15.06
2019-06-15T01:49:01.142Z,15.06
2019-06-15T01:49:34.328Z,15.06
2019-06-15T01:50:09.084Z,15.06
2019-06-15T01:50:42.225Z,15.06
2019-06-15T01:51:15.267Z,15.00
2019-06-15T01:51:48.203Z,15.06
2019-06-15T01:52:21.132Z,15.06
2019-06-15T01:52:54.066Z,15.06
2019-06-15T01:53:27.990Z,15.06
2019-06-15T01:54:01.436Z,15.06
2019-06-15T01:54:34.352Z,15.06
2019-06-15T01:55:19.931Z,15.06
2019-06-15T01:55:42.708Z,15.06
2019-06-15T01:56:15.867Z,15.06
2019-06-15T01:56:48.783Z,15.06
2019-06-15T01:57:21.737Z,15.06
2019-06-15T01:57:54.746Z,15.06
2019-06-15T01:58:27.822Z,15.06
2019-06-15T01:59:00.848Z,15.06
2019-06-15T01:59:33.986Z,15.06
2019-06-15T02:00:09.419Z,15.06
2019-06-15T02:00:43.648Z,15.06
2019-06-15T02:01:16.690Z,15.06
2019-06-15T02:01:49.935Z,15.06
2019-06-15T02:02:22.928Z,15.06
2019-06-15T02:02:56.031Z,15.06
2019-06-15T02:03:28.974Z,15.06
2019-06-15T02:04:01.863Z,15.06
2019-06-15T02:04:34.861Z,15.06
2019-06-15T02:05:08.833Z,15.06
2019-06-15T02:05:41.835Z,15.00
2019-06-15T02:06:14.834Z,15.00
2019-06-15T02:06:47.881Z,15.00
2019-06-15T02:07:20.891Z,14.94
2019-06-15T02:07:53.978Z,14.94
2019-06-15T02:08:26.982Z,14.94
2019-06-15T02:09:00.009Z,14.87
2019-06-15T02:09:32.888Z,14.87
2019-06-15T02:10:07.273Z,14.81
2019-06-15T02:10:40.356Z,14.75
2019-06-15T02:11:13.410Z,14.69
2019-06-15T02:11:46.369Z,14.63
2019-06-15T02:12:19.393Z,14.56
2019-06-15T02:12:52.297Z,14.50
2019-06-15T02:13:25.334Z,14.44
2019-06-15T02:13:58.427Z,14.38
2019-06-15T02:14:31.408Z,14.31
2019-06-15T02:15:04.977Z,14.25
2019-06-15T02:15:37.878Z,14.19
2019-06-15T02:16:11.936Z,14.19
2019-06-15T02:16:44.891Z,14.13
2019-06-15T02:17:18.038Z,14.13
2019-06-15T02:17:51.008Z,14.06
2019-06-15T02:18:24.046Z,14.06
2019-06-15T02:18:57.042Z,14.00
2019-06-15T02:19:30.017Z,14.00
2019-06-15T02:20:03.869Z,14.00
2019-06-15T02:20:36.861Z,14.00
2019-06-15T02:21:09.960Z,13.94
2019-06-15T02:21:43.118Z,13.94
2019-06-15T02:22:16.027Z,13.94
2019-06-15T02:22:49.121Z,13.94
2019-06-15T02:23:22.138Z,13.94
2019-06-15T02:23:55.131Z,13.88
2019-06-15T02:24:27.951Z,13.88
2019-06-15T02:25:01.002Z,13.81
2019-06-15T02:25:36.224Z,13.75
2019-06-15T02:26:08.789Z,13.69
2019-06-15T02:26:41.723Z,13.69
2019-06-15T02:27:14.727Z,13.69
2019-06-15T02:27:48.393Z,13.62
2019-06-15T02:28:21.536Z,13.62
2019-06-15T02:28:54.454Z,13.62
2019-06-15T02:29:27.574Z,13.56
2019-06-15T02:30:00.535Z,13.56
2019-06-15T02:30:33.946Z,13.50
2019-06-15T02:31:06.973Z,13.50
2019-06-15T02:31:40.818Z,13.44
2019-06-15T02:32:13.727Z,13.44
2019-06-15T02:32:46.620Z,13.38
2019-06-15T02:33:19.463Z,13.38
2019-06-15T02:33:52.298Z,13.31
2019-06-15T02:34:25.826Z,13.31
2019-06-15T02:34:58.847Z,13.31
2019-06-15T02:35:32.015Z,13.25
2019-06-15T02:36:05.049Z,13.25
2019-06-15T02:36:38.085Z,13.25
2019-06-15T02:37:11.110Z,13.25
2019-06-15T02:37:44.018Z,13.19
2019-06-15T02:38:17.153Z,13.19
2019-06-15T02:38:50.279Z,13.19
2019-06-15T02:39:23.388Z,13.19
2019-06-15T02:39:56.429Z,13.19
2019-06-15T02:40:29.451Z,13.19
2019-06-15T02:41:04.682Z,13.19
2019-06-15T02:41:38.020Z,13.19
2019-06-15T02:42:11.088Z,13.19
2019-06-15T02:42:44.138Z,13.19
2019-06-15T02:43:17.256Z,13.19
2019-06-15T02:43:50.315Z,13.19
2019-06-15T02:44:23.413Z,13.19
2019-06-15T02:44:56.543Z,13.19
2019-06-15T02:45:29.448Z,13.19
2019-06-15T02:46:02.657Z,13.25
2019-06-15T02:46:35.627Z,13.19
2019-06-15T02:47:08.733Z,13.25
2019-06-15T02:47:41.721Z,13.25
2019-06-15T02:48:14.909Z,13.25
2019-06-15T02:48:47.913Z,13.25
2019-06-15T02:49:20.836Z,13.25
2019-06-15T02:49:53.838Z,13.31
2019-06-15T02:50:26.918Z,13.31
2019-06-15T02:51:00.093Z,13.31
2019-06-15T02:51:33.361Z,13.31
2019-06-15T02:52:06.488Z,13.31
2019-06-15T02:52:39.541Z,13.38
2019-06-15T02:53:12.540Z,13.38
2019-06-15T02:53:45.709Z,13.38
2019-06-15T02:54:18.629Z,13.38
2019-06-15T02:54:51.827Z,13.38
2019-06-15T02:55:24.945Z,13.38
2019-06-15T02:55:58.058Z,13.38
2019-06-15T02:56:31.056Z,13.38
2019-06-15T02:57:04.273Z,13.38
2019-06-15T02:57:37.384Z,13.38
2019-06-15T02:58:10.425Z,13.38
2019-06-15T02:58:43.407Z,13.38
2019-06-15T02:59:16.445Z,13.38
2019-06-15T02:59:49.452Z,13.38
2019-06-15T03:00:52.463Z,13.38
2019-06-15T03:01:25.489Z,13.38
2019-06-15T03:01:59.240Z,13.38
2019-06-15T03:02:32.250Z,13.38
2019-06-15T03:03:05.345Z,13.38
2019-06-15T03:03:38.357Z,13.38
2019-06-15T03:04:11.291Z,13.38
2019-06-15T03:04:44.310Z,13.38
2019-06-15T03:05:17.347Z,13.38
2019-06-15T03:05:50.873Z,13.38
2019-06-15T03:06:24.248Z,13.38
2019-06-15T03:06:57.236Z,13.38
2019-06-15T03:07:30.502Z,13.38
2019-06-15T03:08:03.891Z,13.38
2019-06-15T03:08:37.558Z,13.38
2019-06-15T03:09:10.533Z,13.38
2019-06-15T03:09:43.851Z,13.38
2019-06-15T03:10:16.991Z,13.38
2019-06-15T03:10:50.324Z,13.38
2019-06-15T03:11:23.356Z,13.38
2019-06-15T03:11:56.414Z,13.38
2019-06-15T03:12:30.080Z,13.38
2019-06-15T03:13:03.261Z,13.38
2019-06-15T03:13:36.471Z,13.38
2019-06-15T03:14:09.531Z,13.38
2019-06-15T03:14:43.862Z,13.38
2019-06-15T03:15:17.265Z,13.38
2019-06-15T03:15:50.302Z,13.38
2019-06-15T03:16:23.260Z,13.38
2019-06-15T03:16:56.407Z,13.38
2019-06-15T03:17:29.360Z,13.38
2019-06-15T03:18:02.244Z,13.38
2019-06-15T03:18:38.589Z,13.38
2019-06-15T03:19:11.516Z,13.38
2019-06-15T03:19:44.599Z,13.38
2019-06-15T03:20:18.941Z,13.31
2019-06-15T03:20:51.956Z,13.31
2019-06-15T03:21:24.855Z,13.31
2019-06-15T03:21:57.829Z,13.31
2019-06-15T03:22:31.031Z,13.31
2019-06-15T03:23:03.977Z,13.31
2019-06-15T03:23:37.536Z,13.31
2019-06-15T03:24:10.451Z,13.31
2019-06-15T03:24:43.365Z,13.31
2019-06-15T03:25:16.499Z,13.31
2019-06-15T03:26:04.417Z,13.31
2019-06-15T03:26:25.047Z,13.25
2019-06-15T03:26:57.964Z,13.25
2019-06-15T03:27:30.900Z,13.25
2019-06-15T03:28:04.025Z,13.25
2019-06-15T03:28:36.852Z,13.25
2019-06-15T03:29:09.759Z,13.25
2019-06-15T03:29:42.690Z,13.25
2019-06-15T03:30:16.347Z,13.25
2019-06-15T03:30:49.273Z,13.25
2019-06-15T03:31:22.181Z,13.25
2019-06-15T03:31:55.156Z,13.25
2019-06-15T03:32:28.230Z,13.25
2019-06-15T03:33:01.287Z,13.25
2019-06-15T03:33:34.263Z,13.25
2019-06-15T03:34:07.201Z,13.31
2019-06-15T03:34:41.426Z,13.25
2019-06-15T03:35:15.651Z,13.25
2019-06-15T03:35:48.596Z,13.25
2019-06-15T03:36:21.566Z,13.25
2019-06-15T03:36:54.554Z,13.25
2019-06-15T03:37:27.562Z,13.25
2019-06-15T03:38:00.615Z,13.25
2019-06-15T03:38:33.667Z,13.25
2019-06-15T03:39:06.780Z,13.25
2019-06-15T03:39:39.802Z,13.25
2019-06-15T03:40:13.312Z,13.25
2019-06-15T03:40:46.271Z,13.25
2019-06-15T03:41:19.334Z,13.25
2019-06-15T03:41:52.382Z,13.25
2019-06-15T03:42:25.403Z,13.25
2019-06-15T03:42:58.458Z,13.25
2019-06-15T03:43:31.584Z,13.25
2019-06-15T03:44:04.646Z,13.25
2019-06-15T03:44:37.688Z,13.25
2019-06-15T03:45:11.114Z,13.25
2019-06-15T03:45:44.155Z,13.25
2019-06-15T03:46:17.273Z,13.25
2019-06-15T03:46:50.270Z,13.25
2019-06-15T03:47:23.210Z,13.25
2019-06-15T03:47:56.214Z,13.25
2019-06-15T03:48:29.228Z,13.25
2019-06-15T03:49:02.282Z,13.25
2019-06-15T03:49:35.178Z,13.19
2019-06-15T03:50:08.504Z,13.19
2019-06-15T03:50:41.519Z,13.19
2019-06-15T03:51:14.424Z,13.19
2019-06-15T03:51:47.472Z,13.19
2019-06-15T03:52:20.478Z,13.19
2019-06-15T03:52:53.506Z,13.19
2019-06-15T03:53:26.518Z,13.19
2019-06-15T03:53:59.489Z,13.19
2019-06-15T03:54:32.596Z,13.19
2019-06-15T03:55:05.739Z,13.19
2019-06-15T03:55:40.590Z,13.19
2019-06-15T03:56:21.466Z,13.19
2019-06-15T03:56:48.346Z,13.19
2019-06-15T03:57:21.338Z,13.19
2019-06-15T03:57:54.350Z,13.19
2019-06-15T03:58:28.394Z,13.19
2019-06-15T03:59:01.266Z,13.19
2019-06-15T03:59:34.490Z,13.19
2019-06-15T04:00:43.984Z,13.19
2019-06-15T04:01:30.978Z,13.19
2019-06-15T04:02:04.144Z,13.19
2019-06-15T04:02:37.061Z,13.13
2019-06-15T04:03:10.001Z,13.13
2019-06-15T04:03:43.014Z,13.13
2019-06-15T04:04:16.605Z,13.13
2019-06-15T04:04:52.299Z,13.13
2019-06-15T04:05:24.470Z,13.13
2019-06-15T04:05:57.576Z,13.13
2019-06-15T04:06:30.961Z,13.06
2019-06-15T04:07:04.090Z,13.06
2019-06-15T04:07:36.988Z,13.00
2019-06-15T04:08:10.099Z,13.00
2019-06-15T04:08:43.213Z,13.00
2019-06-15T04:09:16.456Z,13.00
2019-06-15T04:09:49.413Z,12.94
2019-06-15T04:10:22.530Z,12.94
2019-06-15T04:10:55.642Z,12.94
2019-06-15T04:11:28.818Z,12.94
2019-06-15T04:12:03.022Z,12.94
2019-06-15T04:12:37.693Z,12.94
2019-06-15T04:13:10.849Z,12.94
2019-06-15T04:13:43.913Z,12.88
2019-06-15T04:14:17.347Z,12.88
2019-06-15T04:14:50.331Z,12.88
2019-06-15T04:15:23.408Z,12.88
2019-06-15T04:15:56.543Z,12.88
2019-06-15T04:16:29.473Z,12.88
2019-06-15T04:17:02.589Z,12.94
2019-06-15T04:17:35.501Z,12.88
2019-06-15T04:18:08.555Z,12.94
2019-06-15T04:18:41.548Z,12.94
2019-06-15T04:19:14.728Z,12.94
2019-06-15T04:19:47.674Z,12.94
2019-06-15T04:20:22.149Z,12.94
2019-06-15T04:20:55.149Z,12.94
2019-06-15T04:21:28.217Z,12.94
2019-06-15T04:22:01.353Z,12.94
2019-06-15T04:22:34.311Z,12.94
2019-06-15T04:23:07.412Z,12.94
2019-06-15T04:23:40.464Z,13.00
2019-06-15T04:24:13.651Z,13.00
2019-06-15T04:24:46.531Z,13.00
2019-06-15T04:25:19.561Z,13.00
2019-06-15T04:25:52.644Z,13.00
2019-06-15T04:26:35.614Z,13.00
2019-06-15T04:27:00.728Z,13.00
2019-06-15T04:27:33.856Z,13.00
2019-06-15T04:28:06.942Z,13.00
2019-06-15T04:28:39.917Z,13.06
2019-06-15T04:29:12.924Z,13.06
2019-06-15T04:29:45.915Z,13.06
2019-06-15T04:30:19.310Z,13.06
2019-06-15T04:30:52.956Z,13.06
2019-06-15T04:31:26.018Z,13.06
2019-06-15T04:31:58.967Z,13.06
2019-06-15T04:32:31.954Z,13.13
2019-06-15T04:33:05.182Z,13.13
2019-06-15T04:33:38.054Z,13.13
2019-06-15T04:34:11.096Z,13.13
2019-06-15T04:34:44.078Z,13.13
2019-06-15T04:35:17.149Z,13.13
2019-06-15T04:35:50.334Z,13.13
2019-06-15T04:36:23.595Z,13.19
2019-06-15T04:36:57.863Z,13.19
2019-06-15T04:37:30.774Z,13.19
2019-06-15T04:38:04.064Z,13.19
2019-06-15T04:38:36.956Z,13.19
2019-06-15T04:39:10.140Z,13.19
2019-06-15T04:39:43.231Z,13.25
2019-06-15T04:40:16.418Z,13.25
2019-06-15T04:40:49.380Z,13.25
2019-06-15T04:41:22.860Z,13.25
2019-06-15T04:41:55.965Z,13.25
2019-06-15T04:42:29.114Z,13.25
2019-06-15T04:43:02.232Z,13.25
2019-06-15T04:43:35.393Z,13.25
2019-06-15T04:44:08.299Z,13.25
2019-06-15T04:44:41.268Z,13.25
2019-06-15T04:45:14.485Z,13.25
2019-06-15T04:45:47.526Z,13.25
2019-06-15T04:46:20.603Z,13.25
2019-06-15T04:46:53.699Z,13.25
2019-06-15T04:47:27.126Z,13.25
2019-06-15T04:48:00.226Z,13.19
2019-06-15T04:48:33.359Z,13.19
2019-06-15T04:49:06.306Z,13.19
2019-06-15T04:49:39.302Z,13.19
2019-06-15T04:50:12.589Z,13.19
2019-06-15T04:50:45.584Z,13.19
2019-06-15T04:51:18.656Z,13.19
2019-06-15T04:51:51.818Z,13.19
2019-06-15T04:52:24.760Z,13.13
2019-06-15T04:52:57.798Z,13.13
2019-06-15T04:53:30.673Z,13.13
2019-06-15T04:54:04.038Z,13.13
2019-06-15T04:54:37.144Z,13.13
2019-06-15T04:55:10.783Z,13.13
2019-06-15T04:55:43.952Z,13.13
2019-06-15T04:56:16.922Z,13.13
2019-06-15T04:56:51.214Z,13.13
2019-06-15T04:57:24.483Z,13.13
2019-06-15T04:57:57.528Z,13.13
2019-06-15T04:58:30.599Z,13.06
2019-06-15T04:59:03.662Z,13.06
2019-06-15T04:59:36.681Z,13.06
2019-06-15T05:00:10.435Z,13.06
2019-06-15T05:00:43.343Z,13.06
2019-06-15T05:01:17.641Z,13.06
2019-06-15T05:01:50.634Z,13.06
2019-06-15T05:02:27.162Z,13.06
2019-06-15T05:02:58.645Z,13.06
2019-06-15T05:03:31.739Z,13.06
2019-06-15T05:04:04.933Z,13.06
2019-06-15T05:04:37.999Z,13.06
2019-06-15T05:05:11.516Z,13.06
2019-06-15T05:05:44.712Z,13.06
2019-06-15T05:06:17.648Z,13.06
2019-06-15T05:06:50.707Z,13.06
2019-06-15T05:07:23.806Z,13.06
2019-06-15T05:07:57.388Z,13.00
2019-06-15T05:08:30.290Z,13.00
2019-06-15T05:09:05.727Z,13.00
2019-06-15T05:09:38.630Z,13.00
2019-06-15T05:10:11.856Z,13.06
2019-06-15T05:10:44.873Z,13.00
2019-06-15T05:11:18.086Z,13.00
2019-06-15T05:11:51.119Z,13.00
2019-06-15T05:12:24.210Z,13.00
2019-06-15T05:12:57.364Z,13.00
2019-06-15T05:13:30.352Z,13.00
2019-06-15T05:14:03.621Z,13.00
2019-06-15T05:14:36.698Z,13.00
2019-06-15T05:15:09.808Z,13.00
2019-06-15T05:15:42.857Z,13.00
2019-06-15T05:16:15.748Z,13.00
2019-06-15T05:16:48.784Z,13.00
2019-06-15T05:17:21.792Z,12.94
2019-06-15T05:17:54.843Z,12.94
2019-06-15T05:18:27.880Z,12.94
2019-06-15T05:19:01.057Z,12.94
2019-06-15T05:19:34.246Z,12.94
2019-06-15T05:20:08.958Z,12.94
2019-06-15T05:20:42.064Z,12.94
2019-06-15T05:21:15.218Z,12.94
2019-06-15T05:21:48.213Z,12.94
2019-06-15T05:22:21.402Z,12.88
2019-06-15T05:22:54.544Z,12.88
2019-06-15T05:23:27.478Z,12.88
2019-06-15T05:24:00.593Z,12.81
2019-06-15T05:24:33.566Z,12.81
2019-06-15T05:25:07.620Z,12.81
2019-06-15T05:25:40.661Z,12.81
2019-06-15T05:26:13.590Z,12.75
2019-06-15T05:26:46.542Z,12.75
2019-06-15T05:27:19.455Z,12.75
2019-06-15T05:27:52.390Z,12.75
2019-06-15T05:28:25.335Z,12.75
2019-06-15T05:28:58.403Z,12.75
2019-06-15T05:29:31.306Z,12.75
2019-06-15T05:30:05.548Z,12.75
2019-06-15T05:30:38.664Z,12.75
2019-06-15T05:31:11.636Z,12.75
2019-06-15T05:31:44.654Z,12.75
2019-06-15T05:32:17.710Z,12.75
2019-06-15T05:32:50.726Z,12.75
2019-06-15T05:33:23.802Z,12.75
2019-06-15T05:33:56.822Z,12.75
2019-06-15T05:34:29.875Z,12.75
2019-06-15T05:35:03.618Z,12.75
2019-06-15T05:35:36.637Z,12.75
2019-06-15T05:36:09.564Z,12.75
2019-06-15T05:36:42.552Z,12.75
2019-06-15T05:37:16.887Z,12.75
2019-06-15T05:37:49.826Z,12.75
2019-06-15T05:38:22.763Z,12.75
2019-06-15T05:38:55.734Z,12.75
2019-06-15T05:39:28.666Z,12.75
2019-06-15T05:40:01.880Z,12.75
2019-06-15T05:40:34.888Z,12.75
2019-06-15T05:41:09.174Z,12.75
2019-06-15T05:41:42.209Z,12.75
2019-06-15T05:42:15.119Z,12.81
2019-06-15T05:42:48.150Z,12.75
2019-06-15T05:43:21.247Z,12.75
2019-06-15T05:43:54.259Z,12.75
2019-06-15T05:44:29.082Z,12.75
2019-06-15T05:45:02.107Z,12.75
2019-06-15T05:45:35.222Z,12.75
2019-06-15T05:46:08.445Z,12.75
2019-06-15T05:46:41.316Z,12.75
2019-06-15T05:47:14.424Z,12.75
2019-06-15T05:47:47.502Z,12.75
2019-06-15T05:48:20.402Z,12.75
2019-06-15T05:48:53.512Z,12.75
2019-06-15T05:49:27.353Z,12.69
2019-06-15T05:50:00.368Z,12.69
2019-06-15T05:50:33.295Z,12.69
2019-06-15T05:51:06.180Z,12.69
2019-06-15T05:51:39.222Z,12.69
2019-06-15T05:52:12.259Z,12.69
2019-06-15T05:52:45.274Z,12.69
2019-06-15T05:53:18.333Z,12.69
2019-06-15T05:53:51.258Z,12.69
2019-06-15T05:54:24.110Z,12.69
2019-06-15T05:54:57.042Z,12.69
2019-06-15T05:55:30.100Z,12.69
2019-06-15T05:56:03.481Z,12.69
2019-06-15T05:56:36.593Z,12.69
2019-06-15T05:57:21.157Z,12.69
2019-06-15T05:57:44.532Z,12.69
2019-06-15T05:58:17.438Z,12.69
2019-06-15T05:58:50.298Z,12.69
2019-06-15T05:59:23.213Z,12.69
2019-06-15T05:59:56.412Z,12.69
2019-06-15T06:00:29.593Z,12.69
2019-06-15T06:01:02.658Z,12.69
2019-06-15T06:01:35.605Z,12.69
2019-06-15T06:02:08.897Z,12.69
2019-06-15T06:02:41.786Z,12.69
2019-06-15T06:03:14.842Z,12.69
2019-06-15T06:03:47.930Z,12.69
2019-06-15T06:04:21.042Z,12.69
2019-06-15T06:04:54.179Z,12.69
2019-06-15T06:05:27.230Z,12.69
2019-06-15T06:06:00.298Z,12.69
2019-06-15T06:06:33.382Z,12.69
2019-06-15T06:07:06.486Z,12.69
2019-06-15T06:07:39.564Z,12.69
2019-06-15T06:08:12.629Z,12.69
2019-06-15T06:08:45.495Z,12.69
2019-06-15T06:09:18.650Z,12.69
2019-06-15T06:09:51.788Z,12.63
2019-06-15T06:10:24.938Z,12.69
2019-06-15T06:10:58.020Z,12.69
2019-06-15T06:11:31.004Z,12.69
2019-06-15T06:12:04.229Z,12.63
2019-06-15T06:12:37.388Z,12.69
2019-06-15T06:13:10.643Z,12.69
2019-06-15T06:13:43.650Z,12.69
2019-06-15T06:14:17.794Z,12.69
2019-06-15T06:14:50.830Z,12.69
2019-06-15T06:15:26.718Z,12.69
2019-06-15T06:15:58.753Z,12.69
2019-06-15T06:16:31.826Z,12.69
2019-06-15T06:17:05.005Z,12.69
2019-06-15T06:17:38.067Z,12.69
2019-06-15T06:18:11.146Z,12.69
2019-06-15T06:18:44.116Z,12.69
2019-06-15T06:19:17.280Z,12.69
2019-06-15T06:19:50.468Z,12.69
2019-06-15T06:20:23.485Z,12.69
2019-06-15T06:20:56.553Z,12.69
2019-06-15T06:21:29.666Z,12.69
2019-06-15T06:22:02.752Z,12.69
2019-06-15T06:22:35.818Z,12.69
2019-06-15T06:23:09.035Z,12.75
2019-06-15T06:23:42.051Z,12.69
2019-06-15T06:24:15.208Z,12.75
2019-06-15T06:24:48.342Z,12.75
2019-06-15T06:25:21.515Z,12.75
2019-06-15T06:25:54.653Z,12.75
2019-06-15T06:26:28.635Z,12.75
2019-06-15T06:27:04.065Z,12.75
2019-06-15T06:27:37.372Z,12.75
2019-06-15T06:28:11.611Z,12.75
2019-06-15T06:28:56.795Z,12.75
2019-06-15T06:29:20.403Z,12.75
2019-06-15T06:29:53.560Z,12.75
2019-06-15T06:30:29.963Z,12.75
2019-06-15T06:31:01.706Z,12.75
2019-06-15T06:31:34.898Z,12.75
2019-06-15T06:32:08.200Z,12.75
2019-06-15T06:32:41.357Z,12.75
2019-06-15T06:33:15.662Z,12.75
2019-06-15T06:33:48.920Z,12.75
2019-06-15T06:34:21.904Z,12.75
2019-06-15T06:34:55.095Z,12.75
2019-06-15T06:35:28.268Z,12.75
2019-06-15T06:36:01.462Z,12.75
2019-06-15T06:36:34.567Z,12.75
2019-06-15T06:37:07.605Z,12.81
2019-06-15T06:37:40.687Z,12.81
2019-06-15T06:38:13.742Z,12.81
2019-06-15T06:38:46.708Z,12.81
2019-06-15T06:39:19.961Z,12.81
2019-06-15T06:39:53.062Z,12.81
2019-06-15T06:40:26.148Z,12.81
2019-06-15T06:40:59.242Z,12.81
2019-06-15T06:41:32.454Z,12.81
2019-06-15T06:42:05.534Z,12.88
2019-06-15T06:42:39.100Z,12.88
2019-06-15T06:43:12.188Z,12.88
2019-06-15T06:43:45.242Z,12.88
2019-06-15T06:44:18.459Z,12.88
2019-06-15T06:44:51.423Z,12.88
2019-06-15T06:45:24.634Z,12.88
2019-06-15T06:45:57.581Z,12.88
2019-06-15T06:46:30.728Z,12.88
2019-06-15T06:47:04.011Z,12.88
2019-06-15T06:47:37.055Z,12.88
2019-06-15T06:48:10.313Z,12.88
2019-06-15T06:48:43.382Z,12.88
2019-06-15T06:49:16.504Z,12.88
2019-06-15T06:49:49.343Z,12.88
2019-06-15T06:50:22.645Z,12.88
2019-06-15T06:50:55.644Z,12.88
2019-06-15T06:51:28.719Z,12.88
2019-06-15T06:52:01.684Z,12.88
2019-06-15T06:52:34.703Z,12.88
2019-06-15T06:53:07.720Z,12.88
2019-06-15T06:53:40.649Z,12.94
2019-06-15T06:54:13.604Z,12.94
2019-06-15T06:54:46.640Z,12.94
2019-06-15T06:55:19.773Z,12.94
2019-06-15T06:55:52.606Z,12.94
2019-06-15T06:56:25.662Z,12.94
2019-06-15T06:56:59.112Z,12.94
2019-06-15T06:57:32.242Z,12.94
2019-06-15T06:58:05.156Z,12.94
2019-06-15T06:58:38.133Z,12.94
2019-06-15T06:59:11.288Z,12.94
2019-06-15T06:59:46.910Z,12.94
2019-06-15T07:00:20.507Z,12.94
2019-06-15T07:00:54.698Z,12.94
2019-06-15T07:01:28.050Z,12.94
2019-06-15T07:02:01.112Z,12.94
2019-06-15T07:02:34.222Z,12.94
2019-06-15T07:03:07.317Z,12.94
2019-06-15T07:03:40.462Z,12.94
2019-06-15T07:04:13.478Z,12.94
2019-06-15T07:04:46.597Z,12.94
2019-06-15T07:05:19.616Z,12.94
2019-06-15T07:05:52.636Z,12.94
2019-06-15T07:06:26.020Z,12.94
2019-06-15T07:06:59.072Z,12.94
2019-06-15T07:07:32.140Z,12.94
2019-06-15T07:08:05.241Z,12.94
2019-06-15T07:08:38.366Z,12.94
2019-06-15T07:09:11.594Z,12.94